Strona główna
METAR-TAF:

METAR-TAF

Lotnisko :

Fort Belvoir, Wirginia, Stany Zjednoczone

Szerokość geograficzna: 38-43N, Długość geograficzna: 077-11W, wysokość: 21 m

Aktualna obserwacja pogody

Raport powstał 45 minut temu, godzina 18:56 UTC
Wiatr 9 kt od południowy wschód
Temperatura 8°C
Wilgotność 53%
Ciśnienie 1030 hPa
Widzialność: 16.1 km
bezchmurnie

METAR: KDAA 081856Z AUTO 14009KT 10SM CLR 08/M01 A3042 RMK AO2 SLP305 T00821011 $

czas: 14:41 (19:41 UTC)

Prognoza

Raport powstał 41 godziny i 41 minut temu, godzina 02:00 UTC
Prognoza ważna od 07 godzina 02 UTC do 08 godzina 08 UTC
Wiatr 6 kt z kierunków zmiennych
Widzialność 10 km lub więcej
Przerywane chmury na wysokości 3000 ft
Stopniowe zmiany
od 07 godzina 08 UTC do 07 godzina 09 UTC
Wiatr 6 kt od północ
Widzialność: 0910 m
Rozproszone chmury na wysokości 2000 ft

TAF: KDAA 070200Z 0702/0808 VRB06KT 9999 BKN030 QNH3012INS BECMG 0708/0709 36006KT 9999 SCT020 QNH3015INS TX07/0703Z TN00/0711Z LAST NO AMDS AFT 0702 NEXT 0910

Obserwacja i prognoza pogody dla ponad 4000 lotnisk (raport METAR i TAF).

Dostępne stacje oznaczono żółtymi i czerwonymi punktami na mapie.

Najedź kursorem aby zobaczyć nazwę stacji.

Kliknij aby zobaczyć obserwacje i prognozy pogody.

Aby zmienić mapę: kliknij na zielony przycisk z czarnym krzyżykiem, aby powiększyć; na zielony przycisk z myślnikiem, aby pomniejszyć; na zielone strzałki, aby przejść do map sąsiednich.


METAR-TAF: